Time;durP1;ratioP1;P1;durP2;ratioP2;P2;SDS_P1;SDS_P2;PMS_P1;PMS_P2;Temp;Humidity;BMP_temperature;BMP_pressure;BME280_temperature;BME280_humidity;BME280_pressure;Samples;Min_cycle;Max_cycle;Signal;HPM_P1;HPM_P2
2022/09/06 04:33:30;;;;;;;;;;;23.90;99.90;;;;;;5904471;22;19924;-80
2022/09/06 04:35:58;;;;;;;;;;;23.90;99.90;;;;;;5059540;28;19921;-80
2022/09/06 04:38:25;;;;;;;;;;;23.90;99.90;;;;;;5059163;28;19928;-80
2022/09/06 04:40:52;;;;;;;;;;;23.90;99.90;;;;;;5059285;28;19974;-79
2022/09/06 04:43:19;;;;;;;;;;;23.90;99.90;;;;;;5057402;28;19964;-80
2022/09/06 04:45:45;;;;;;;;;;;23.90;99.90;;;;;;5058274;28;20004;-79
2022/09/06 04:48:12;;;;;;;;;;;24.00;99.90;;;;;;5059225;28;19921;-83
2022/09/06 04:50:40;;;;;;;;;;;23.90;99.90;;;;;;5059607;28;19925;-81
2022/09/06 04:53:07;;;;;;;;;;;23.90;99.90;;;;;;5057043;28;19920;-78
2022/09/06 04:55:34;;;;;;;;;;;23.90;99.90;;;;;;5054466;28;19951;-79
2022/09/06 04:58:02;;;;;;;;;;;23.90;99.90;;;;;;5060507;28;20029;-83
2022/09/06 05:00:30;;;;;;;;;;;23.90;99.90;;;;;;5061535;28;19921;-79
2022/09/06 05:02:57;;;;;;;;;;;23.90;99.90;;;;;;5059900;28;19921;-80
2022/09/06 05:05:24;;;;;;;;;;;23.90;99.90;;;;;;5062331;28;19964;-81
2022/09/06 05:07:53;;;;;;;;;;;23.90;99.90;;;;;;5062687;28;19920;-81
2022/09/06 05:10:20;;;;;;;;;;;23.90;99.90;;;;;;5061525;28;19921;-81
2022/09/06 05:12:47;;;;;;;;;;;23.90;99.90;;;;;;5060954;28;19964;-80
2022/09/06 05:15:14;;;;;;;;;;;23.90;99.90;;;;;;5059331;28;19959;-81
2022/09/06 05:17:41;;;;;;;;;;;23.90;99.90;;;;;;5058436;28;19921;-81
2022/09/06 05:20:09;;;;;;;;;;;23.90;99.90;;;;;;5083093;22;19979;-80
2022/09/06 05:22:35;;;;;;;;;;;23.90;99.90;;;;;;5059303;28;19921;-80
2022/09/06 05:25:03;;;;;;;;;;;23.90;99.90;;;;;;5059537;28;19921;-80
2022/09/06 05:27:30;;;;;;;;;;;23.90;99.90;;;;;;5060269;28;20471;-81
2022/09/06 05:29:57;;;;;;;;;;;23.90;99.90;;;;;;5060447;28;20407;-80
2022/09/06 05:32:23;;;;;;;;;;;23.90;99.90;;;;;;5059652;28;19968;-80
2022/09/06 05:34:50;;;;;;;;;;;23.90;99.90;;;;;;5060172;28;20011;-80
2022/09/06 05:37:17;;;;;;;;;;;23.90;99.90;;;;;;5059670;28;19960;-84
2022/09/06 05:39:50;;;;;;;;;;;24.00;99.90;;;;;;5060413;28;20013;-83
2022/09/06 05:42:18;;;;;;;;;;;23.90;99.90;;;;;;5060097;28;19975;-82
2022/09/06 05:44:45;;;;;;;;;;;24.00;99.90;;;;;;5059801;28;19944;-82
2022/09/06 05:47:12;;;;;;;;;;;23.90;99.90;;;;;;5059778;28;19967;-83
2022/09/06 05:49:39;;;;;;;;;;;24.00;99.90;;;;;;5060580;28;20288;-82
2022/09/06 05:52:06;;;;;;;;;;;23.90;99.90;;;;;;5060850;28;20295;-82
2022/09/06 05:54:33;;;;;;;;;;;23.90;99.90;;;;;;5059183;28;20402;-83
2022/09/06 05:56:59;;;;;;;;;;;24.00;99.90;;;;;;5058527;28;19967;-83
2022/09/06 05:59:27;;;;;;;;;;;23.90;99.90;;;;;;5058378;28;20012;-83
2022/09/06 06:01:54;;;;;;;;;;;23.90;99.90;;;;;;5058671;28;20279;-83
2022/09/06 06:04:22;;;;;;;;;;;23.90;99.90;;;;;;5058854;28;19925;-83
2022/09/06 06:06:48;;;;;;;;;;;23.90;99.90;;;;;;5058763;28;19920;-83
2022/09/06 06:09:15;;;;;;;;;;;24.00;99.90;;;;;;5057969;28;19921;-82
2022/09/06 06:11:42;;;;;;;;;;;23.90;99.90;;;;;;5060330;28;20007;-83
2022/09/06 06:14:09;;;;;;;;;;;23.90;99.90;;;;;;5059837;28;19952;-83
2022/09/06 06:16:37;;;;;;;;;;;23.90;99.90;;;;;;5059777;28;19921;-82
2022/09/06 06:19:04;;;;;;;;;;;24.00;99.90;;;;;;5059996;28;19927;-82
2022/09/06 06:21:31;;;;;;;;;;;24.00;99.90;;;;;;5060069;28;19968;-82
2022/09/06 06:23:58;;;;;;;;;;;23.90;99.90;;;;;;5060164;28;19927;-82
2022/09/06 06:26:26;;;;;;;;;;;24.00;99.90;;;;;;5061121;28;19927;-83
2022/09/06 06:28:53;;;;;;;;;;;23.90;99.90;;;;;;5060225;28;19979;-82
2022/09/06 06:31:21;;;;;;;;;;;23.90;99.90;;;;;;5060547;28;19928;-82
2022/09/06 06:33:49;;;;;;;;;;;23.90;99.90;;;;;;5060236;28;20365;-82
2022/09/06 06:36:20;;;;;;;;;;;23.90;99.90;;;;;;5059748;28;19980;-82
2022/09/06 06:38:47;;;;;;;;;;;23.90;99.90;;;;;;5059434;28;20019;-82
2022/09/06 06:41:15;;;;;;;;;;;23.80;99.90;;;;;;5059466;28;19920;-82
2022/09/06 06:43:41;;;;;;;;;;;23.80;99.90;;;;;;5059901;28;19968;-82
2022/09/06 06:46:09;;;;;;;;;;;23.80;99.90;;;;;;5059347;28;19921;-82
2022/09/06 06:48:36;;;;;;;;;;;23.80;99.90;;;;;;5058481;28;19960;-81
2022/09/06 06:51:04;;;;;;;;;;;23.80;99.90;;;;;;5058847;28;20019;-82
2022/09/06 06:53:31;;;;;;;;;;;23.80;99.90;;;;;;5058814;28;19971;-82
2022/09/06 06:55:58;;;;;;;;;;;23.80;99.90;;;;;;5057840;28;19920;-82
2022/09/06 06:58:25;;;;;;;;;;;23.80;99.90;;;;;;5058158;28;19921;-81
2022/09/06 07:00:51;;;;;;;;;;;23.80;99.90;;;;;;5058692;28;19928;-82
2022/09/06 07:03:18;;;;;;;;;;;23.80;99.90;;;;;;5059714;28;20007;-82
2022/09/06 07:05:45;;;;;;;;;;;23.80;99.90;;;;;;5058672;28;19964;-82
2022/09/06 07:08:13;;;;;;;;;;;23.80;99.90;;;;;;5057958;28;19964;-82
2022/09/06 07:10:40;;;;;;;;;;;23.80;99.90;;;;;;5058522;28;19927;-82
2022/09/06 07:13:07;;;;;;;;;;;23.70;99.90;;;;;;5058577;28;19967;-82
2022/09/06 07:15:34;;;;;;;;;;;23.80;99.90;;;;;;5058422;28;20272;-82
2022/09/06 07:18:01;;;;;;;;;;;23.70;99.90;;;;;;5058492;28;20384;-82
2022/09/06 07:20:27;;;;;;;;;;;23.80;99.90;;;;;;5057713;28;19921;-82
2022/09/06 07:23:00;;;;;;;;;;;23.80;99.90;;;;;;5058268;28;19927;-82
2022/09/06 07:25:29;;;;;;;;;;;23.70;99.90;;;;;;5058445;28;20284;-82
2022/09/06 07:27:56;;;;;;;;;;;23.70;99.90;;;;;;5058626;28;19920;-82
2022/09/06 07:30:23;;;;;;;;;;;23.70;99.90;;;;;;5058500;28;19925;-82
2022/09/06 07:32:49;;;;;;;;;;;23.70;99.90;;;;;;5058252;28;20017;-82
2022/09/06 07:35:16;;;;;;;;;;;23.70;99.90;;;;;;5058342;28;19921;-82
2022/09/06 07:37:43;;;;;;;;;;;23.70;99.90;;;;;;5058203;28;20458;-82
2022/09/06 07:40:12;;;;;;;;;;;23.70;99.90;;;;;;5059324;28;20013;-82
2022/09/06 07:42:41;;;;;;;;;;;23.70;99.90;;;;;;5058835;28;19989;-82
2022/09/06 07:45:08;;;;;;;;;;;23.70;99.90;;;;;;5058680;28;20380;-82
2022/09/06 07:47:35;;;;;;;;;;;23.80;99.90;;;;;;5058330;28;19921;-82
2022/09/06 07:50:02;;;;;;;;;;;23.80;99.90;;;;;;5058139;28;19921;-82
2022/09/06 07:52:28;;;;;;;;;;;23.80;99.90;;;;;;5057843;28;19971;-82
2022/09/06 07:54:55;;;;;;;;;;;23.80;99.90;;;;;;5058130;28;19992;-81
2022/09/06 07:57:23;;;;;;;;;;;23.80;99.90;;;;;;5057975;28;19921;-80
2022/09/06 07:59:51;;;;;;;;;;;23.70;99.90;;;;;;5058264;28;19964;-80
2022/09/06 08:02:18;;;;;;;;;;;23.70;99.90;;;;;;5058409;28;19920;-84
2022/09/06 08:04:45;;;;;;;;;;;23.80;99.90;;;;;;5057965;28;20330;-82
2022/09/06 08:07:11;;;;;;;;;;;23.80;99.90;;;;;;5058214;28;20271;-79
2022/09/06 08:09:38;;;;;;;;;;;23.70;99.90;;;;;;5057530;28;20342;-82
2022/09/06 08:12:06;;;;;;;;;;;23.80;99.90;;;;;;5057722;28;20370;-82
2022/09/06 08:14:33;;;;;;;;;;;23.80;99.90;;;;;;5057960;28;19921;-82
2022/09/06 08:17:01;;;;;;;;;;;23.80;99.90;;;;;;5058614;28;20331;-82
2022/09/06 08:19:28;;;;;;;;;;;23.70;99.90;;;;;;5057319;28;20301;-82
2022/09/06 08:21:54;;;;;;;;;;;23.80;99.90;;;;;;5057404;28;20279;-82
2022/09/06 08:24:21;;;;;;;;;;;23.80;99.90;;;;;;5057289;28;20007;-82
2022/09/06 08:26:48;;;;;;;;;;;23.80;99.90;;;;;;5058112;28;20299;-82
2022/09/06 08:29:15;;;;;;;;;;;23.80;99.90;;;;;;5056980;28;20376;-82
2022/09/06 08:31:42;;;;;;;;;;;23.80;99.90;;;;;;5057149;28;20435;-81
2022/09/06 08:34:13;;;;;;;;;;;23.80;99.90;;;;;;5056722;28;19920;-82
2022/09/06 08:36:40;;;;;;;;;;;23.80;99.90;;;;;;5056870;28;19921;-82
2022/09/06 08:39:07;;;;;;;;;;;23.80;99.90;;;;;;5056812;28;19975;-82
2022/09/06 08:41:40;;;;;;;;;;;23.80;99.90;;;;;;5057058;28;19982;-82
2022/09/06 08:44:08;;;;;;;;;;;23.80;99.90;;;;;;5056419;28;19926;-82
2022/09/06 08:46:37;;;;;;;;;;;23.80;99.90;;;;;;5057098;28;20007;-82
2022/09/06 08:49:04;;;;;;;;;;;23.80;99.90;;;;;;5056857;28;20007;-82
2022/09/06 08:51:37;;;;;;;;;;;23.80;99.90;;;;;;5056633;28;20368;-82
2022/09/06 08:54:08;;;;;;;;;;;23.80;99.90;;;;;;5057124;28;19921;-83
2022/09/06 08:56:38;;;;;;;;;;;23.80;99.90;;;;;;5056836;28;19921;-83
2022/09/06 08:59:06;;;;;;;;;;;23.80;99.90;;;;;;5056339;28;20368;-82
2022/09/06 09:01:35;;;;;;;;;;;23.80;99.90;;;;;;5056535;28;19921;-80
2022/09/06 09:04:05;;;;;;;;;;;23.80;99.90;;;;;;5056645;28;19927;-82
2022/09/06 09:06:32;;;;;;;;;;;23.80;99.90;;;;;;5057438;28;19959;-82
2022/09/06 09:09:02;;;;;;;;;;;23.80;99.90;;;;;;5057236;28;19920;-82
2022/09/06 09:11:32;;;;;;;;;;;23.90;99.90;;;;;;5057165;28;19947;-82
2022/09/06 09:14:03;;;;;;;;;;;23.90;99.90;;;;;;5056125;28;20022;-81
2022/09/06 09:16:30;;;;;;;;;;;23.90;99.90;;;;;;5056823;28;19927;-81
2022/09/06 09:18:59;;;;;;;;;;;24.00;99.90;;;;;;5056496;28;19964;-82
2022/09/06 09:21:26;;;;;;;;;;;23.90;99.90;;;;;;5056667;28;20379;-80
2022/09/06 09:23:53;;;;;;;;;;;23.90;99.90;;;;;;5058044;28;19920;-80
2022/09/06 09:26:23;;;;;;;;;;;24.00;99.90;;;;;;5057294;28;19920;-80
2022/09/06 09:29:02;;;;;;;;;;;24.00;99.90;;;;;;5057484;28;20415;-82
2022/09/06 09:31:34;;;;;;;;;;;24.00;99.90;;;;;;5058027;28;19920;-82
2022/09/06 09:34:03;;;;;;;;;;;24.00;99.90;;;;;;5058041;28;20012;-82
2022/09/06 09:36:30;;;;;;;;;;;24.00;99.90;;;;;;5057461;28;20312;-82
2022/09/06 09:38:57;;;;;;;;;;;24.00;99.90;;;;;;5057438;28;20350;-81
2022/09/06 09:41:28;;;;;;;;;;;24.00;99.90;;;;;;5056876;28;20024;-83
2022/09/06 09:43:56;;;;;;;;;;;24.00;99.90;;;;;;5057617;28;19931;-82
2022/09/06 09:46:29;;;;;;;;;;;24.00;99.90;;;;;;5060390;28;19927;-82
2022/09/06 09:49:00;;;;;;;;;;;24.00;99.90;;;;;;5060925;28;19927;-82
2022/09/06 09:51:28;;;;;;;;;;;24.00;99.90;;;;;;5060733;28;19928;-82
2022/09/06 09:53:55;;;;;;;;;;;24.00;99.90;;;;;;5060863;28;19992;-82
2022/09/06 09:56:27;;;;;;;;;;;24.00;99.90;;;;;;5060941;28;19927;-82
2022/09/06 09:58:55;;;;;;;;;;;24.00;99.90;;;;;;5060892;28;19971;-82
2022/09/06 10:01:25;;;;;;;;;;;23.90;99.90;;;;;;5060088;28;19920;-82
2022/09/06 10:03:52;;;;;;;;;;;23.90;99.90;;;;;;5060681;28;20015;-82
2022/09/06 10:06:25;;;;;;;;;;;24.00;99.90;;;;;;5061081;28;19920;-82
2022/09/06 10:08:53;;;;;;;;;;;24.00;99.90;;;;;;5060788;28;19921;-82
2022/09/06 10:11:34;;;;;;;;;;;24.00;99.90;;;;;;5060892;28;19921;-82
2022/09/06 10:14:11;;;;;;;;;;;23.90;99.90;;;;;;5060135;28;20012;-82
2022/09/06 10:16:43;;;;;;;;;;;24.00;99.90;;;;;;5060764;28;19920;-82
2022/09/06 10:19:21;;;;;;;;;;;23.90;99.90;;;;;;5060150;28;19920;-82
2022/09/06 10:21:48;;;;;;;;;;;23.90;99.90;;;;;;5060253;28;19920;-82
2022/09/06 10:24:20;;;;;;;;;;;23.90;99.90;;;;;;5060373;28;19924;-82
2022/09/06 10:26:50;;;;;;;;;;;23.90;99.90;;;;;;5060301;28;19978;-82
2022/09/06 10:29:23;;;;;;;;;;;23.90;99.90;;;;;;5060205;28;20007;-82
2022/09/06 10:32:00;;;;;;;;;;;23.90;99.90;;;;;;5060534;28;19921;-82
2022/09/06 10:34:38;;;;;;;;;;;23.90;99.90;;;;;;5060181;28;19979;-82
2022/09/06 10:37:11;;;;;;;;;;;23.90;99.90;;;;;;5059921;28;20016;-82
2022/09/06 10:39:45;;;;;;;;;;;23.90;99.90;;;;;;5060059;28;20000;-82
2022/09/06 10:42:17;;;;;;;;;;;23.90;99.90;;;;;;5060594;28;19921;-82
2022/09/06 10:44:50;;;;;;;;;;;23.90;99.90;;;;;;5060216;28;20300;-82
2022/09/06 10:47:17;;;;;;;;;;;23.90;99.90;;;;;;5060076;28;19972;-82
2022/09/06 10:49:46;;;;;;;;;;;24.00;99.90;;;;;;5060095;28;19931;-82
2022/09/06 10:52:15;;;;;;;;;;;23.90;99.90;;;;;;5071577;28;19972;-82
2022/09/06 10:54:45;;;;;;;;;;;24.00;99.90;;;;;;5072854;28;19968;-82
2022/09/06 10:57:16;;;;;;;;;;;24.00;99.90;;;;;;5071891;28;19920;-82
2022/09/06 10:59:47;;;;;;;;;;;24.00;99.90;;;;;;5070054;28;19920;-82
2022/09/06 11:02:22;;;;;;;;;;;24.00;99.90;;;;;;5062148;28;19920;-83
2022/09/06 11:04:50;;;;;;;;;;;24.00;99.90;;;;;;5061587;28;19975;-82
2022/09/06 11:07:20;;;;;;;;;;;24.00;99.90;;;;;;5062905;28;20019;-83
2022/09/06 11:09:50;;;;;;;;;;;24.00;99.90;;;;;;5062710;28;19964;-84
2022/09/06 11:12:18;;;;;;;;;;;24.00;99.90;;;;;;5061349;28;19970;-82
2022/09/06 11:14:45;;;;;;;;;;;24.00;99.90;;;;;;5060517;28;20269;-83
2022/09/06 11:17:15;;;;;;;;;;;24.00;99.90;;;;;;5061424;28;20015;-83
2022/09/06 11:19:46;;;;;;;;;;;24.10;99.90;;;;;;5061129;28;19927;-82
2022/09/06 11:22:28;;;;;;;;;;;24.10;99.90;;;;;;5061313;28;19927;-83
2022/09/06 11:25:12;;;;;;;;;;;24.10;99.90;;;;;;5081541;22;20020;-82
2022/09/06 11:27:40;;;;;;;;;;;24.20;99.90;;;;;;5050538;28;19978;-82
2022/09/06 11:30:13;;;;;;;;;;;24.10;99.90;;;;;;5057561;28;19943;-82
2022/09/06 11:32:42;;;;;;;;;;;24.10;99.90;;;;;;5057505;28;19971;-82
2022/09/06 11:35:20;;;;;;;;;;;24.20;99.90;;;;;;5057152;28;19924;-81
2022/09/06 11:37:49;;;;;;;;;;;24.10;99.90;;;;;;5057504;28;20359;-81
2022/09/06 11:40:17;;;;;;;;;;;24.20;99.90;;;;;;5057267;28;20443;-78
2022/09/06 11:43:02;;;;;;;;;;;24.20;99.90;;;;;;5055891;28;20007;-77
2022/09/06 11:45:39;;;;;;;;;;;24.20;99.90;;;;;;5057899;28;19924;-75
2022/09/06 11:48:21;;;;;;;;;;;24.30;99.90;;;;;;5059348;28;20376;-75
2022/09/06 11:51:01;;;;;;;;;;;24.20;99.90;;;;;;5059868;28;19928;-78
2022/09/06 11:53:29;;;;;;;;;;;24.30;99.90;;;;;;5059291;28;19986;-79
2022/09/06 11:56:10;;;;;;;;;;;24.30;99.90;;;;;;5059410;28;19978;-77
2022/09/06 11:58:45;;;;;;;;;;;24.30;99.90;;;;;;5061937;28;20351;-78
2022/09/06 12:01:31;;;;;;;;;;;24.30;99.90;;;;;;5059880;28;19927;-76
2022/09/06 12:04:01;;;;;;;;;;;24.30;99.90;;;;;;5059227;28;19928;-77
2022/09/06 12:06:32;;;;;;;;;;;24.30;99.90;;;;;;5056286;28;20358;-78
2022/09/06 12:08:59;;;;;;;;;;;24.30;99.90;;;;;;5059603;28;19931;-76
2022/09/06 12:11:28;;;;;;;;;;;24.30;99.90;;;;;;5059186;28;19920;-76
2022/09/06 12:13:56;;;;;;;;;;;24.30;99.90;;;;;;5059615;28;20021;-76
2022/09/06 12:16:24;;;;;;;;;;;24.30;99.90;;;;;;5060120;28;19920;-76
2022/09/06 12:19:00;;;;;;;;;;;24.30;99.90;;;;;;5059159;28;19921;-76
2022/09/06 12:21:51;;;;;;;;;;;24.30;99.90;;;;;;5059733;28;19972;-79
2022/09/06 12:24:37;;;;;;;;;;;24.30;99.90;;;;;;5059510;28;19920;-78
2022/09/06 12:27:14;;;;;;;;;;;24.30;99.90;;;;;;5060156;28;19975;-78
2022/09/06 12:29:48;;;;;;;;;;;24.20;99.90;;;;;;5060300;28;19971;-78
2022/09/06 12:32:19;;;;;;;;;;;24.20;99.90;;;;;;5061707;28;20434;-79
2022/09/06 12:34:46;;;;;;;;;;;24.30;99.90;;;;;;5060965;28;20386;-79
2022/09/06 12:37:13;;;;;;;;;;;24.20;99.90;;;;;;5060998;28;19928;-79
2022/09/06 12:39:56;;;;;;;;;;;24.20;99.90;;;;;;5060922;28;19920;-79
2022/09/06 12:42:25;;;;;;;;;;;24.20;99.90;;;;;;5060675;28;19920;-76
2022/09/06 12:44:53;;;;;;;;;;;24.20;99.90;;;;;;5058941;28;19927;-76
2022/09/06 12:47:23;;;;;;;;;;;24.20;99.90;;;;;;5058662;28;19921;-75
2022/09/06 12:50:06;;;;;;;;;;;24.30;99.90;;;;;;5059180;28;19925;-74
2022/09/06 12:52:33;;;;;;;;;;;24.20;99.90;;;;;;5058909;28;19927;-75
2022/09/06 12:55:00;;;;;;;;;;;24.20;99.90;;;;;;5059404;28;19924;-76
2022/09/06 12:57:28;;;;;;;;;;;24.20;99.90;;;;;;5058474;28;20011;-75
2022/09/06 12:59:56;;;;;;;;;;;24.20;99.90;;;;;;5059343;28;19920;-75
2022/09/06 13:02:29;;;;;;;;;;;24.20;99.90;;;;;;5058635;28;19920;-75
2022/09/06 13:05:00;;;;;;;;;;;24.20;99.90;;;;;;5056699;28;19921;-75
2022/09/06 13:07:27;;;;;;;;;;;24.20;99.90;;;;;;5053585;28;20443;-75
2022/09/06 13:09:56;;;;;;;;;;;24.20;99.90;;;;;;5056313;28;19929;-75
2022/09/06 13:12:25;;;;;;;;;;;24.20;99.90;;;;;;5055946;28;20008;-76
2022/09/06 13:14:54;;;;;;;;;;;24.20;99.90;;;;;;5055397;28;19921;-76
2022/09/06 13:17:25;;;;;;;;;;;24.20;99.90;;;;;;5055543;28;19921;-76
2022/09/06 13:19:52;;;;;;;;;;;24.20;99.90;;;;;;5056318;28;20260;-76
2022/09/06 13:22:39;;;;;;;;;;;24.20;99.90;;;;;;5057610;28;20015;-76
2022/09/06 13:25:13;;;;;;;;;;;24.20;99.90;;;;;;5057581;28;19966;-76
2022/09/06 13:27:44;;;;;;;;;;;24.20;99.90;;;;;;5057829;28;19920;-76
2022/09/06 13:30:29;;;;;;;;;;;24.10;99.90;;;;;;5057737;28;19928;-76
2022/09/06 13:32:56;;;;;;;;;;;24.20;99.90;;;;;;5057908;28;20007;-78
2022/09/06 13:35:23;;;;;;;;;;;24.20;99.90;;;;;;5058189;28;19921;-77
2022/09/06 13:37:50;;;;;;;;;;;24.10;99.90;;;;;;5057292;28;19932;-77
2022/09/06 13:40:34;;;;;;;;;;;24.20;99.90;;;;;;5057603;28;19920;-77
2022/09/06 13:43:01;;;;;;;;;;;24.20;99.90;;;;;;5057165;28;20379;-77
2022/09/06 13:45:32;;;;;;;;;;;24.10;99.90;;;;;;5057474;28;19971;-77
2022/09/06 13:47:59;;;;;;;;;;;24.10;99.90;;;;;;5057441;28;19921;-77
2022/09/06 13:50:26;;;;;;;;;;;24.10;99.90;;;;;;5057179;28;20003;-77
2022/09/06 13:52:53;;;;;;;;;;;24.10;99.90;;;;;;5057238;28;19920;-77
2022/09/06 13:55:20;;;;;;;;;;;24.10;99.90;;;;;;5057322;28;19920;-77
2022/09/06 13:57:47;;;;;;;;;;;24.20;99.90;;;;;;5057262;28;19920;-77
2022/09/06 14:00:14;;;;;;;;;;;24.10;99.90;;;;;;5057206;28;19964;-77
2022/09/06 14:02:42;;;;;;;;;;;24.10;99.90;;;;;;5057139;28;19925;-77
2022/09/06 14:05:09;;;;;;;;;;;24.10;99.90;;;;;;5057002;28;19943;-77
2022/09/06 14:07:35;;;;;;;;;;;24.10;99.90;;;;;;5057061;28;19920;-77
2022/09/06 14:10:02;;;;;;;;;;;24.10;99.90;;;;;;5056996;28;20015;-77
2022/09/06 14:12:33;;;;;;;;;;;24.20;99.90;;;;;;5056907;28;20019;-77
2022/09/06 14:15:00;;;;;;;;;;;24.10;99.90;;;;;;5056928;28;19931;-77
2022/09/06 14:17:27;;;;;;;;;;;24.10;99.90;;;;;;5056992;28;20019;-77
2022/09/06 14:19:55;;;;;;;;;;;24.10;99.90;;;;;;5056665;28;19921;-78
2022/09/06 14:22:22;;;;;;;;;;;24.10;99.90;;;;;;5058043;28;19920;-78
2022/09/06 14:24:49;;;;;;;;;;;24.10;99.90;;;;;;5056656;28;20019;-77
2022/09/06 14:27:16;;;;;;;;;;;24.20;99.90;;;;;;5056808;28;19920;-77
2022/09/06 14:29:43;;;;;;;;;;;24.10;99.90;;;;;;5056677;28;20006;-77
2022/09/06 14:32:10;;;;;;;;;;;24.20;99.90;;;;;;5055677;28;19967;-77
2022/09/06 14:34:36;;;;;;;;;;;24.10;99.90;;;;;;5056542;28;19927;-77
2022/09/06 14:37:04;;;;;;;;;;;24.20;99.90;;;;;;5056292;28;19920;-77
2022/09/06 14:39:31;;;;;;;;;;;24.10;99.90;;;;;;5056172;28;19924;-77
2022/09/06 14:41:58;;;;;;;;;;;24.10;99.90;;;;;;5056357;28;19920;-77
2022/09/06 14:44:24;;;;;;;;;;;24.10;99.90;;;;;;5056292;28;19971;-77
2022/09/06 14:46:52;;;;;;;;;;;24.10;99.90;;;;;;5056312;28;20015;-77
2022/09/06 14:49:19;;;;;;;;;;;24.10;99.90;;;;;;5055945;28;20467;-77
2022/09/06 14:51:46;;;;;;;;;;;24.10;99.90;;;;;;5056143;28;19928;-77
2022/09/06 14:54:14;;;;;;;;;;;24.10;99.90;;;;;;5056058;28;19921;-77
2022/09/06 14:56:42;;;;;;;;;;;24.10;99.90;;;;;;5056573;28;20280;-77
2022/09/06 14:59:09;;;;;;;;;;;24.10;99.90;;;;;;5056092;28;19951;-77
2022/09/06 15:01:37;;;;;;;;;;;24.20;99.90;;;;;;5055663;28;20011;-77
2022/09/06 15:04:04;;;;;;;;;;;24.10;99.90;;;;;;5055560;28;19953;-77
2022/09/06 15:06:32;;;;;;;;;;;24.10;99.90;;;;;;5055957;28;19925;-77
2022/09/06 15:08:59;;;;;;;;;;;24.20;99.90;;;;;;5055723;28;20379;-77
2022/09/06 15:11:33;;;;;;;;;;;24.10;99.90;;;;;;5055570;28;20360;-77
2022/09/06 15:14:00;;;;;;;;;;;24.20;99.90;;;;;;5055794;28;19921;-77
2022/09/06 15:16:27;;;;;;;;;;;24.10;99.90;;;;;;5055818;28;19920;-77
2022/09/06 15:18:53;;;;;;;;;;;24.20;99.90;;;;;;5055794;28;19925;-77
2022/09/06 15:21:21;;;;;;;;;;;24.10;99.90;;;;;;5055469;28;19920;-77
2022/09/06 15:23:47;;;;;;;;;;;24.10;99.90;;;;;;5055613;28;20015;-77
2022/09/06 15:26:15;;;;;;;;;;;24.10;99.90;;;;;;5055159;28;20257;-77
2022/09/06 15:28:43;;;;;;;;;;;24.10;99.90;;;;;;5055499;28;19924;-77
2022/09/06 15:31:10;;;;;;;;;;;24.10;99.90;;;;;;5055454;28;19974;-77
2022/09/06 15:33:37;;;;;;;;;;;24.20;99.90;;;;;;5056036;28;20011;-77
2022/09/06 15:36:05;;;;;;;;;;;24.20;99.90;;;;;;5055482;28;19921;-77
2022/09/06 15:38:32;;;;;;;;;;;24.10;99.90;;;;;;5055383;28;20022;-77
2022/09/06 15:41:03;;;;;;;;;;;24.10;99.90;;;;;;5055298;28;19929;-77
2022/09/06 15:43:31;;;;;;;;;;;24.10;99.90;;;;;;5054932;28;19970;-77
2022/09/06 15:46:00;;;;;;;;;;;24.10;99.90;;;;;;5055417;28;19928;-79
2022/09/06 15:48:27;;;;;;;;;;;24.10;99.90;;;;;;5055497;28;19994;-76
2022/09/06 15:50:54;;;;;;;;;;;24.10;99.90;;;;;;5054628;28;20390;-75
2022/09/06 15:53:20;;;;;;;;;;;24.10;99.90;;;;;;5054564;28;20402;-76
2022/09/06 15:55:56;;;;;;;;;;;24.10;99.90;;;;;;5054697;28;20003;-76
2022/09/06 15:58:23;;;;;;;;;;;24.10;99.90;;;;;;5054629;28;19921;-76
2022/09/06 16:01:00;;;;;;;;;;;24.10;99.90;;;;;;5054747;28;20291;-76
2022/09/06 16:03:27;;;;;;;;;;;24.10;99.90;;;;;;5054742;28;19968;-76
2022/09/06 16:05:54;;;;;;;;;;;24.10;99.90;;;;;;5054653;28;20015;-76
2022/09/06 16:08:20;;;;;;;;;;;24.20;99.90;;;;;;5054615;28;19927;-76
2022/09/06 16:10:47;;;;;;;;;;;24.10;99.90;;;;;;5054472;28;20011;-76
2022/09/06 16:13:14;;;;;;;;;;;24.20;99.90;;;;;;5054534;28;19927;-76
2022/09/06 16:15:40;;;;;;;;;;;24.10;99.90;;;;;;5054511;28;19921;-75
2022/09/06 16:18:08;;;;;;;;;;;24.10;99.90;;;;;;5054637;28;19920;-75
2022/09/06 16:20:36;;;;;;;;;;;24.10;99.90;;;;;;5054573;28;19920;-76
2022/09/06 16:23:03;;;;;;;;;;;24.10;99.90;;;;;;5054475;28;19927;-76
2022/09/06 16:25:30;;;;;;;;;;;24.10;99.90;;;;;;5054209;28;20012;-76
2022/09/06 16:27:57;;;;;;;;;;;24.20;99.90;;;;;;5054494;28;19928;-76
2022/09/06 16:30:24;;;;;;;;;;;24.20;99.90;;;;;;5054660;28;19920;-76
2022/09/06 16:32:50;;;;;;;;;;;24.10;99.90;;;;;;5054233;28;20027;-76
2022/09/06 16:35:19;;;;;;;;;;;24.20;99.90;;;;;;5054312;28;19960;-76
2022/09/06 16:37:45;;;;;;;;;;;24.20;99.90;;;;;;5053953;28;20489;-76
2022/09/06 16:40:12;;;;;;;;;;;24.20;99.90;;;;;;5053906;28;20019;-77
2022/09/06 16:42:39;;;;;;;;;;;24.20;99.90;;;;;;5054403;28;19927;-77
2022/09/06 16:45:06;;;;;;;;;;;24.20;99.90;;;;;;5053830;28;19921;-76
2022/09/06 16:47:32;;;;;;;;;;;24.20;99.90;;;;;;5054988;28;19946;-77
2022/09/06 16:49:59;;;;;;;;;;;24.20;99.90;;;;;;5054048;28;19920;-77
2022/09/06 16:52:28;;;;;;;;;;;24.20;99.90;;;;;;5053978;28;20023;-77
2022/09/06 16:54:55;;;;;;;;;;;24.20;99.90;;;;;;5053188;28;19920;-77
2022/09/06 16:57:23;;;;;;;;;;;24.20;99.90;;;;;;5053685;28;20007;-76
2022/09/06 16:59:50;;;;;;;;;;;24.30;99.90;;;;;;5056448;28;19975;-80
2022/09/06 17:02:20;;;;;;;;;;;24.20;99.90;;;;;;5057552;28;19921;-81
2022/09/06 17:04:48;;;;;;;;;;;24.20;99.90;;;;;;5057504;28;19960;-79
2022/09/06 17:07:15;;;;;;;;;;;24.30;99.90;;;;;;5056894;28;19943;-79
2022/09/06 17:09:43;;;;;;;;;;;24.20;99.90;;;;;;5057919;28;20369;-80
2022/09/06 17:12:09;;;;;;;;;;;24.20;99.90;;;;;;5058284;28;19927;-79
2022/09/06 17:14:36;;;;;;;;;;;24.30;99.90;;;;;;5057825;28;19952;-82
2022/09/06 17:17:05;;;;;;;;;;;24.20;99.90;;;;;;5057648;28;20455;-82
2022/09/06 17:19:35;;;;;;;;;;;24.20;99.90;;;;;;5058191;28;19920;-81
2022/09/06 17:22:02;;;;;;;;;;;24.20;99.90;;;;;;5057864;28;19955;-81
2022/09/06 17:24:28;;;;;;;;;;;24.20;99.90;;;;;;5057883;28;20004;-82
2022/09/06 17:26:56;;;;;;;;;;;24.20;99.90;;;;;;5060176;28;19952;-80
2022/09/06 17:29:26;;;;;;;;;;;24.20;99.90;;;;;;5058127;28;19956;-80
2022/09/06 17:31:53;;;;;;;;;;;24.20;99.90;;;;;;5056951;28;19920;-81
2022/09/06 17:34:20;;;;;;;;;;;24.20;99.90;;;;;;5057851;28;19939;-81
2022/09/06 17:36:47;;;;;;;;;;;24.20;99.90;;;;;;5080995;22;19927;-79
2022/09/06 17:39:16;;;;;;;;;;;24.20;99.90;;;;;;5057050;28;20024;-79
2022/09/06 17:41:44;;;;;;;;;;;24.20;99.90;;;;;;5056479;28;20417;-82
2022/09/06 17:44:13;;;;;;;;;;;24.20;99.90;;;;;;5056182;28;20442;-83
2022/09/06 17:46:41;;;;;;;;;;;24.20;99.90;;;;;;5056676;28;19921;-83
2022/09/06 17:49:08;;;;;;;;;;;24.20;99.90;;;;;;5056710;28;20011;-83
2022/09/06 17:51:35;;;;;;;;;;;24.20;99.90;;;;;;5056918;28;19921;-83
2022/09/06 17:54:01;;;;;;;;;;;24.20;99.90;;;;;;5057159;28;19927;-83
2022/09/06 17:56:29;;;;;;;;;;;24.20;99.90;;;;;;5057118;28;19983;-82
2022/09/06 17:58:57;;;;;;;;;;;24.20;99.90;;;;;;5056438;28;20050;-83
2022/09/06 18:01:28;;;;;;;;;;;24.20;99.90;;;;;;5057370;28;19982;-82
2022/09/06 18:03:54;;;;;;;;;;;24.20;99.90;;;;;;5057342;28;19933;-83
2022/09/06 18:06:22;;;;;;;;;;;24.20;99.90;;;;;;5059529;28;19927;-82
2022/09/06 18:08:50;;;;;;;;;;;24.20;99.90;;;;;;5061300;28;19921;-84
2022/09/06 18:11:17;;;;;;;;;;;24.20;99.90;;;;;;5061597;28;19921;-82
2022/09/06 18:13:44;;;;;;;;;;;24.20;99.90;;;;;;5062853;28;19971;-83
2022/09/06 18:16:12;;;;;;;;;;;24.20;99.90;;;;;;5061555;28;19944;-83
2022/09/06 18:18:41;;;;;;;;;;;24.20;99.90;;;;;;5062531;28;20292;-83
2022/09/06 18:21:07;;;;;;;;;;;24.20;99.90;;;;;;5063653;28;20011;-80
2022/09/06 18:23:35;;;;;;;;;;;24.20;99.90;;;;;;5062138;28;19960;-80
2022/09/06 18:26:02;;;;;;;;;;;24.20;99.90;;;;;;5066186;28;19992;-79
2022/09/06 18:28:29;;;;;;;;;;;24.20;99.90;;;;;;5062187;28;20015;-79
2022/09/06 18:30:57;;;;;;;;;;;24.20;99.90;;;;;;5059685;28;19927;-79
2022/09/06 18:33:24;;;;;;;;;;;24.20;99.90;;;;;;5059618;28;20019;-80
2022/09/06 18:35:52;;;;;;;;;;;24.20;99.90;;;;;;5060354;28;19955;-80
2022/09/06 18:38:19;;;;;;;;;;;24.20;99.90;;;;;;5060534;28;20007;-82
2022/09/06 18:40:52;;;;;;;;;;;24.20;99.90;;;;;;5060266;28;20011;-83
2022/09/06 18:43:19;;;;;;;;;;;24.20;99.90;;;;;;5060729;28;19928;-83
2022/09/06 18:45:46;;;;;;;;;;;24.20;99.90;;;;;;5060469;28;19943;-80
2022/09/06 18:48:13;;;;;;;;;;;24.20;99.90;;;;;;5061973;28;20015;-77
2022/09/06 18:50:40;;;;;;;;;;;24.20;99.90;;;;;;5061368;28;20019;-77
2022/09/06 18:53:08;;;;;;;;;;;24.20;99.90;;;;;;5059290;28;19964;-81
2022/09/06 18:55:37;;;;;;;;;;;24.20;99.90;;;;;;5058598;28;19921;-81
2022/09/06 18:58:04;;;;;;;;;;;24.20;99.90;;;;;;5057935;28;19943;-82